Time;durP1;ratioP1;P1;durP2;ratioP2;P2;SDS_P1;SDS_P2;PMS_P1;PMS_P2;Temp;Humidity;BMP_temperature;BMP_pressure;BME280_temperature;BME280_humidity;BME280_pressure;Samples;Min_cycle;Max_cycle;Signal;HPM_P1;HPM_P2
2022/06/24 00:01:11;;;;;;;6.53;3.45;;;;;;;;;;5054996;28;20021;-73
2022/06/24 00:03:36;;;;;;;3.78;3.20;;;;;;;;;;5036089;28;20098;-73
2022/06/24 00:06:01;;;;;;;4.45;3.50;;;;;;;;;;5037104;28;20477;-72
2022/06/24 00:08:27;;;;;;;5.80;3.38;;;;;;;;;;5056258;28;20423;-72
2022/06/24 00:10:52;;;;;;;3.97;3.58;;;;;;;;;;5037641;28;20422;-76
2022/06/24 00:13:17;;;;;;;4.97;3.67;;;;;;;;;;5056308;28;20020;-76
2022/06/24 00:15:42;;;;;;;3.40;3.10;;;;;;;;;;5038510;28;20715;-73
2022/06/24 00:18:15;;;;;;;6.18;3.80;;;;;;;;;;5038130;28;20275;-76
2022/06/24 00:20:44;;;;;;;4.20;3.30;;;;;;;;;;5055854;28;20025;-75
2022/06/24 00:23:09;;;;;;;5.35;3.67;;;;;;;;;;5056328;28;20025;-75
2022/06/24 00:25:38;;;;;;;5.25;3.90;;;;;;;;;;5057368;28;20021;-74
2022/06/24 00:28:04;;;;;;;4.00;3.28;;;;;;;;;;5058247;28;20366;-75
2022/06/24 00:30:39;;;;;;;4.40;3.80;;;;;;;;;;5058146;28;20064;-75
2022/06/24 00:33:19;;;;;;;6.60;4.45;;;;;;;;;;5059673;28;20029;-75
2022/06/24 00:35:48;;;;;;;4.15;3.72;;;;;;;;;;5060966;28;20021;-75
2022/06/24 00:38:24;;;;;;;4.40;3.65;;;;;;;;;;5059879;28;20033;-75
2022/06/24 00:40:52;;;;;;;3.70;3.40;;;;;;;;;;5039685;28;20021;-75
2022/06/24 00:43:23;;;;;;;4.75;3.70;;;;;;;;;;5058517;28;20387;-75
2022/06/24 00:45:51;;;;;;;5.60;4.25;;;;;;;;;;5058565;28;20028;-75
2022/06/24 00:48:18;;;;;;;5.57;3.92;;;;;;;;;;5056873;28;20438;-75
2022/06/24 00:50:45;;;;;;;5.35;3.85;;;;;;;;;;5058250;28;20048;-74
2022/06/24 00:53:10;;;;;;;6.07;3.67;;;;;;;;;;5059569;28;20021;-75
2022/06/24 00:55:36;;;;;;;4.97;3.50;;;;;;;;;;5040604;28;20044;-74
2022/06/24 00:58:03;;;;;;;4.88;3.60;;;;;;;;;;5059243;28;20017;-74
2022/06/24 01:00:30;;;;;;;4.32;3.92;;;;;;;;;;5057358;28;20450;-75
2022/06/24 01:02:56;;;;;;;3.65;3.35;;;;;;;;;;5059768;28;20473;-75
2022/06/24 01:05:21;;;;;;;4.35;3.95;;;;;;;;;;5059573;28;20036;-75
2022/06/24 01:07:46;;;;;;;3.80;3.43;;;;;;;;;;5058364;28;20025;-74
2022/06/24 01:10:12;;;;;;;4.43;4.03;;;;;;;;;;5059810;28;20313;-74
2022/06/24 01:12:37;;;;;;;5.70;3.78;;;;;;;;;;5058397;28;20021;-76
2022/06/24 01:15:03;;;;;;;4.68;3.83;;;;;;;;;;5039362;28;20403;-74
2022/06/24 01:17:29;;;;;;;4.43;4.03;;;;;;;;;;5058393;28;20373;-75
2022/06/24 01:19:54;;;;;;;6.22;4.32;;;;;;;;;;5061041;28;20046;-74
2022/06/24 01:22:20;;;;;;;5.40;4.10;;;;;;;;;;5043901;28;20017;-76
2022/06/24 01:24:45;;;;;;;7.28;3.75;;;;;;;;;;5040931;28;20024;-74
2022/06/24 01:27:11;;;;;;;4.70;3.47;;;;;;;;;;5041159;28;20020;-76
2022/06/24 01:29:36;;;;;;;7.67;4.20;;;;;;;;;;5059046;28;20067;-76
2022/06/24 01:32:01;;;;;;;4.93;3.97;;;;;;;;;;5059547;28;20267;-75
2022/06/24 01:34:27;;;;;;;5.10;3.95;;;;;;;;;;5058560;28;20045;-74
2022/06/24 01:36:52;;;;;;;6.15;4.50;;;;;;;;;;5059322;28;20017;-75
2022/06/24 01:39:18;;;;;;;5.23;4.03;;;;;;;;;;5040804;28;20028;-75
2022/06/24 01:41:43;;;;;;;5.00;4.05;;;;;;;;;;5060343;28;20267;-74
2022/06/24 01:44:08;;;;;;;5.95;4.35;;;;;;;;;;5056579;28;20021;-74
2022/06/24 01:46:33;;;;;;;5.63;4.20;;;;;;;;;;5037454;28;20021;-74
2022/06/24 01:48:59;;;;;;;4.22;3.83;;;;;;;;;;5056036;28;20035;-74
2022/06/24 01:51:25;;;;;;;6.03;4.60;;;;;;;;;;5040676;28;20021;-75
2022/06/24 01:53:50;;;;;;;7.35;4.38;;;;;;;;;;5057893;28;20076;-75
2022/06/24 01:56:16;;;;;;;6.05;4.38;;;;;;;;;;5057240;28;20021;-76
2022/06/24 01:58:41;;;;;;;5.50;4.15;;;;;;;;;;5056996;28;20021;-73
2022/06/24 02:01:06;;;;;;;7.65;4.55;;;;;;;;;;5056281;28;20017;-75
2022/06/24 02:03:33;;;;;;;5.73;4.10;;;;;;;;;;5040592;28;20028;-75
2022/06/24 02:06:01;;;;;;;6.15;4.47;;;;;;;;;;5040451;28;20760;-75
2022/06/24 02:08:26;;;;;;;5.55;5.05;;;;;;;;;;5057285;28;20110;-73
2022/06/24 02:13:36;;;;;;;5.78;4.50;;;;;;;;;;5057394;28;20624;-75
2022/06/24 02:16:03;;;;;;;6.10;4.40;;;;;;;;;;5055273;28;20017;-75
2022/06/24 02:18:28;;;;;;;6.35;4.43;;;;;;;;;;5040676;28;20071;-75
2022/06/24 02:20:54;;;;;;;5.32;4.53;;;;;;;;;;5037997;28;20021;-74
2022/06/24 02:23:20;;;;;;;6.63;5.07;;;;;;;;;;5055587;28;20027;-74
2022/06/24 02:25:46;;;;;;;4.82;4.22;;;;;;;;;;5055137;28;20025;-74
2022/06/24 02:28:12;;;;;;;6.65;4.95;;;;;;;;;;5037088;28;20017;-75
2022/06/24 02:30:38;;;;;;;7.05;4.70;;;;;;;;;;5054459;28;20553;-74
2022/06/24 02:33:03;;;;;;;6.95;4.70;;;;;;;;;;5036095;28;20070;-74
2022/06/24 02:35:29;;;;;;;6.22;4.78;;;;;;;;;;5054405;28;20355;-74
2022/06/24 02:37:54;;;;;;;6.72;4.80;;;;;;;;;;5054266;28;20032;-73
2022/06/24 02:43:10;;;;;;;9.98;5.07;;;;;;;;;;5053397;28;20612;-75
2022/06/24 02:45:35;;;;;;;5.93;4.95;;;;;;;;;;5053376;28;20036;-76
2022/06/24 02:48:00;;;;;;;5.22;4.72;;;;;;;;;;5053300;28;20457;-76
2022/06/24 02:50:25;;;;;;;8.37;5.20;;;;;;;;;;5035310;28;20039;-75
2022/06/24 02:52:51;;;;;;;5.88;4.78;;;;;;;;;;5053234;28;20546;-75
2022/06/24 02:55:16;;;;;;;6.55;5.50;;;;;;;;;;5053157;28;20025;-76
2022/06/24 02:57:41;;;;;;;6.47;4.37;;;;;;;;;;5053159;28;20024;-74
2022/06/24 03:00:07;;;;;;;5.40;4.43;;;;;;;;;;5053008;28;20282;-75
2022/06/24 03:02:32;;;;;;;7.38;5.53;;;;;;;;;;5053370;28;20862;-76
2022/06/24 03:04:57;;;;;;;5.80;4.73;;;;;;;;;;5053033;28;20024;-75
2022/06/24 03:07:22;;;;;;;6.50;4.87;;;;;;;;;;5052961;28;20274;-76
2022/06/24 03:09:48;;;;;;;7.50;5.17;;;;;;;;;;5053022;28;20337;-77
2022/06/24 03:12:13;;;;;;;6.83;5.13;;;;;;;;;;5053186;28;20667;-75
2022/06/24 03:14:38;;;;;;;7.17;4.63;;;;;;;;;;5053307;28;20270;-76
2022/06/24 03:17:03;;;;;;;7.57;4.97;;;;;;;;;;5053003;28;20317;-76
2022/06/24 03:19:29;;;;;;;5.93;5.33;;;;;;;;;;5052973;28;20283;-75
2022/06/24 03:21:54;;;;;;;8.40;4.57;;;;;;;;;;5052900;28;20589;-76
2022/06/24 03:24:19;;;;;;;6.27;5.27;;;;;;;;;;5052827;28;20020;-76
2022/06/24 03:26:44;;;;;;;5.97;4.82;;;;;;;;;;5052905;28;20274;-76
2022/06/24 03:29:10;;;;;;;9.43;4.93;;;;;;;;;;5052907;28;20446;-76
2022/06/24 03:31:35;;;;;;;7.60;5.25;;;;;;;;;;5034864;28;20310;-77
2022/06/24 03:34:00;;;;;;;7.83;4.90;;;;;;;;;;5052987;28;20013;-76
2022/06/24 03:36:26;;;;;;;8.23;4.90;;;;;;;;;;5052647;28;20343;-75
2022/06/24 03:38:51;;;;;;;6.88;5.18;;;;;;;;;;5052749;28;20135;-74
2022/06/24 03:41:16;;;;;;;8.25;5.35;;;;;;;;;;5052938;28;20021;-74
2022/06/24 03:43:42;;;;;;;5.70;4.75;;;;;;;;;;5052886;28;20379;-76
2022/06/24 03:46:07;;;;;;;6.95;5.05;;;;;;;;;;5052897;28;20067;-75
2022/06/24 03:48:32;;;;;;;4.87;4.30;;;;;;;;;;5056488;28;20032;-76
2022/06/24 03:50:57;;;;;;;8.47;4.93;;;;;;;;;;5056312;28;20268;-75
2022/06/24 03:53:22;;;;;;;5.63;4.70;;;;;;;;;;5056375;28;20271;-76
2022/06/24 03:55:48;;;;;;;5.77;4.43;;;;;;;;;;5056325;28;20301;-75
2022/06/24 03:58:14;;;;;;;9.68;5.30;;;;;;;;;;5056490;28;20714;-75
2022/06/24 04:00:39;;;;;;;8.50;5.38;;;;;;;;;;5056033;28;20115;-76
2022/06/24 04:03:04;;;;;;;8.73;4.93;;;;;;;;;;5038365;28;20113;-77
2022/06/24 04:05:30;;;;;;;7.57;5.80;;;;;;;;;;5038106;28;20066;-76
2022/06/24 04:07:56;;;;;;;7.70;4.63;;;;;;;;;;5056280;28;20406;-76
2022/06/24 04:10:21;;;;;;;11.50;4.93;;;;;;;;;;5056069;28;20275;-76
2022/06/24 04:12:47;;;;;;;6.20;5.40;;;;;;;;;;5055979;28;20484;-76
2022/06/24 04:15:15;;;;;;;5.33;4.67;;;;;;;;;;5056074;28;20033;-75
2022/06/24 04:17:40;;;;;;;5.70;5.05;;;;;;;;;;5055857;28;20318;-76
2022/06/24 04:20:06;;;;;;;8.23;5.40;;;;;;;;;;5038022;28;20052;-76
2022/06/24 04:22:32;;;;;;;6.10;4.80;;;;;;;;;;5055250;28;20032;-76
2022/06/24 04:24:58;;;;;;;4.78;4.32;;;;;;;;;;5056089;28;20470;-76
2022/06/24 04:27:25;;;;;;;4.82;4.35;;;;;;;;;;5055626;28;20135;-76
2022/06/24 04:29:57;;;;;;;7.85;5.40;;;;;;;;;;5055634;28;20489;-76
2022/06/24 04:32:22;;;;;;;5.35;4.85;;;;;;;;;;5054880;28;20021;-76
2022/06/24 04:34:48;;;;;;;7.13;5.10;;;;;;;;;;5036971;28;20424;-76
2022/06/24 04:37:13;;;;;;;7.95;5.30;;;;;;;;;;5055625;28;20325;-77
2022/06/24 04:39:39;;;;;;;7.60;5.90;;;;;;;;;;5055489;28;20024;-75
2022/06/24 04:42:04;;;;;;;5.57;4.88;;;;;;;;;;5055620;28;20754;-76
2022/06/24 04:44:30;;;;;;;8.32;5.80;;;;;;;;;;5055522;28;20053;-77
2022/06/24 04:46:56;;;;;;;6.05;4.75;;;;;;;;;;5037171;28;20025;-77
2022/06/24 04:49:22;;;;;;;8.90;4.95;;;;;;;;;;5055464;28;20031;-75
2022/06/24 04:51:48;;;;;;;7.22;4.70;;;;;;;;;;5055560;28;20036;-79
2022/06/24 04:54:14;;;;;;;7.90;5.65;;;;;;;;;;5054641;28;20025;-79
2022/06/24 04:56:42;;;;;;;4.60;4.20;;;;;;;;;;5054805;28;20032;-79
2022/06/24 04:59:10;;;;;;;5.30;4.65;;;;;;;;;;5035634;28;20132;-78
2022/06/24 05:01:37;;;;;;;6.65;5.65;;;;;;;;;;5054918;28;20091;-78
2022/06/24 05:04:04;;;;;;;7.28;4.90;;;;;;;;;;5053940;28;20420;-78
2022/06/24 05:06:29;;;;;;;10.48;5.82;;;;;;;;;;5037000;28;20044;-77
2022/06/24 05:08:57;;;;;;;6.07;5.03;;;;;;;;;;5054683;28;20029;-78
2022/06/24 05:11:26;;;;;;;6.95;5.05;;;;;;;;;;5036875;28;20021;-77
2022/06/24 05:13:53;;;;;;;6.63;5.00;;;;;;;;;;5054761;28;20033;-76
2022/06/24 05:16:21;;;;;;;9.65;5.93;;;;;;;;;;5035330;28;20094;-76
2022/06/24 05:18:47;;;;;;;6.93;5.10;;;;;;;;;;5054568;28;20086;-76
2022/06/24 05:21:13;;;;;;;9.75;6.50;;;;;;;;;;5053338;28;20103;-77
2022/06/24 05:23:41;;;;;;;7.43;4.68;;;;;;;;;;5047870;28;20021;-76
2022/06/24 05:26:08;;;;;;;9.90;5.50;;;;;;;;;;5050268;28;20041;-77
2022/06/24 05:28:35;;;;;;;10.03;4.90;;;;;;;;;;5053385;28;20462;-78
2022/06/24 05:31:02;;;;;;;12.07;4.70;;;;;;;;;;5036022;28;20299;-78
2022/06/24 05:33:29;;;;;;;7.97;5.00;;;;;;;;;;5053971;28;20025;-77
2022/06/24 05:35:55;;;;;;;7.45;4.45;;;;;;;;;;5054602;28;20021;-80
2022/06/24 05:38:22;;;;;;;6.55;4.35;;;;;;;;;;5036520;28;20009;-78
2022/06/24 05:40:56;;;;;;;11.30;5.22;;;;;;;;;;5053861;28;20041;-76
2022/06/24 05:43:21;;;;;;;5.90;4.30;;;;;;;;;;5054361;28;20021;-82
2022/06/24 05:45:47;;;;;;;9.87;6.30;;;;;;;;;;5037158;28;20013;-79
2022/06/24 05:48:14;;;;;;;11.18;5.07;;;;;;;;;;5020337;28;20279;-78
2022/06/24 05:50:41;;;;;;;5.55;3.15;;;;;;;;;;5036162;28;20032;-79
2022/06/24 05:55:55;;;;;;;10.57;3.90;;;;;;;;;;5053568;28;20078;-76
2022/06/24 05:58:22;;;;;;;9.93;4.05;;;;;;;;;;5019596;28;20017;-80
2022/06/24 06:00:47;;;;;;;8.40;3.75;;;;;;;;;;5053591;28;20029;-78
2022/06/24 06:03:12;;;;;;;7.17;2.90;;;;;;;;;;5048376;28;20358;-75
2022/06/24 06:05:39;;;;;;;5.85;3.65;;;;;;;;;;5051163;28;20347;-75
2022/06/24 06:08:05;;;;;;;10.27;3.20;;;;;;;;;;5035814;28;20021;-79
2022/06/24 06:10:31;;;;;;;13.13;3.95;;;;;;;;;;5035891;28;20024;-80
2022/06/24 06:12:57;;;;;;;5.30;3.47;;;;;;;;;;5052142;28;20023;-80
2022/06/24 06:15:23;;;;;;;5.80;2.93;;;;;;;;;;5051483;28;20024;-79
2022/06/24 06:17:49;;;;;;;4.40;2.72;;;;;;;;;;5036517;28;20362;-80
2022/06/24 06:20:15;;;;;;;6.10;3.80;;;;;;;;;;5052300;28;20041;-85
2022/06/24 06:22:41;;;;;;;6.10;3.23;;;;;;;;;;5053627;28;20009;-81
2022/06/24 06:25:09;;;;;;;8.18;3.28;;;;;;;;;;5053750;28;20100;-87
2022/06/24 06:27:36;;;;;;;4.55;3.03;;;;;;;;;;5054671;28;20032;-81
2022/06/24 06:30:03;;;;;;;6.18;3.20;;;;;;;;;;5053503;28;20033;-86
2022/06/24 06:32:31;;;;;;;4.88;3.33;;;;;;;;;;5057984;28;20036;-83
2022/06/24 06:34:58;;;;;;;6.22;2.58;;;;;;;;;;5061105;28;20100;-85
2022/06/24 06:37:26;;;;;;;5.72;4.15;;;;;;;;;;5053309;28;20017;-82
2022/06/24 06:39:54;;;;;;;5.60;2.65;;;;;;;;;;5053033;28;20087;-87
2022/06/24 06:42:25;;;;;;;4.25;2.88;;;;;;;;;;5051942;28;20020;-87
2022/06/24 06:44:50;;;;;;;9.63;2.70;;;;;;;;;;5033508;28;20040;-84
2022/06/24 06:47:17;;;;;;;3.33;2.80;;;;;;;;;;5050389;28;20024;-84
2022/06/24 06:49:44;;;;;;;3.58;2.50;;;;;;;;;;5050694;28;20025;-84
2022/06/24 06:52:09;;;;;;;10.65;3.92;;;;;;;;;;5051268;28;20021;-85
2022/06/24 06:54:35;;;;;;;6.43;2.90;;;;;;;;;;5052533;28;20029;-86
2022/06/24 06:57:01;;;;;;;3.35;2.28;;;;;;;;;;5053547;28;20024;-84
2022/06/24 06:59:28;;;;;;;4.18;2.50;;;;;;;;;;5053661;28;20416;-88
2022/06/24 07:01:55;;;;;;;4.13;2.15;;;;;;;;;;5053651;28;20482;-86
2022/06/24 07:04:22;;;;;;;4.97;2.42;;;;;;;;;;5054378;28;20023;-86
2022/06/24 07:06:47;;;;;;;2.58;2.22;;;;;;;;;;5054427;28;20403;-86
2022/06/24 07:09:13;;;;;;;9.00;2.47;;;;;;;;;;5054205;28;20082;-85
2022/06/24 07:11:40;;;;;;;7.43;2.40;;;;;;;;;;5041606;28;20041;-84
2022/06/24 07:14:06;;;;;;;10.20;3.10;;;;;;;;;;5066664;28;20061;-82
2022/06/24 07:16:32;;;;;;;5.53;2.13;;;;;;;;;;5039952;28;20033;-85
2022/06/24 07:18:59;;;;;;;3.22;1.98;;;;;;;;;;5053148;28;20021;-86
2022/06/24 07:21:26;;;;;;;2.40;1.90;;;;;;;;;;5036454;28;20017;-84
2022/06/24 07:23:52;;;;;;;5.00;2.15;;;;;;;;;;5041297;28;20498;-86
2022/06/24 07:26:18;;;;;;;6.15;2.17;;;;;;;;;;5057729;28;20465;-86
2022/06/24 07:28:45;;;;;;;4.32;1.77;;;;;;;;;;5056359;28;20013;-85
2022/06/24 07:31:17;;;;;;;3.45;2.05;;;;;;;;;;5038948;28;20102;-87
2022/06/24 07:33:43;;;;;;;3.83;2.03;;;;;;;;;;5057451;28;20438;-85
2022/06/24 07:36:09;;;;;;;3.47;2.15;;;;;;;;;;5057150;28;20024;-89
2022/06/24 07:38:35;;;;;;;5.30;2.22;;;;;;;;;;5057271;28;20084;-84
2022/06/24 07:41:02;;;;;;;4.70;2.10;;;;;;;;;;5056773;28;20108;-85
2022/06/24 07:43:28;;;;;;;8.73;2.17;;;;;;;;;;5056974;28;20045;-82
2022/06/24 07:45:54;;;;;;;3.05;1.70;;;;;;;;;;5039004;28;20354;-81
2022/06/24 07:48:21;;;;;;;5.25;2.00;;;;;;;;;;5056522;28;20032;-79
2022/06/24 07:50:46;;;;;;;3.80;2.22;;;;;;;;;;5038951;28;20440;-80
2022/06/24 07:53:12;;;;;;;4.82;2.45;;;;;;;;;;5038659;28;20025;-80
2022/06/24 07:58:25;;;;;;;6.80;2.38;;;;;;;;;;5041628;28;20451;-86
2022/06/24 08:00:51;;;;;;;3.47;1.88;;;;;;;;;;5038312;28;20177;-85
2022/06/24 08:03:16;;;;;;;5.15;1.90;;;;;;;;;;5039170;28;20051;-88
2022/06/24 08:05:42;;;;;;;6.07;2.20;;;;;;;;;;5038903;28;20021;-87
2022/06/24 08:08:09;;;;;;;2.97;2.20;;;;;;;;;;5040099;28;20046;-82
2022/06/24 08:10:35;;;;;;;2.80;1.80;;;;;;;;;;5057175;28;20025;-80
2022/06/24 08:13:02;;;;;;;7.15;2.08;;;;;;;;;;5056245;28;20051;-80
2022/06/24 08:15:28;;;;;;;5.18;2.08;;;;;;;;;;5055412;28;20033;-78
2022/06/24 08:17:55;;;;;;;2.05;1.70;;;;;;;;;;5055991;28;20060;-81
2022/06/24 08:20:28;;;;;;;2.58;2.10;;;;;;;;;;5055921;28;20103;-82
2022/06/24 08:22:55;;;;;;;2.60;2.03;;;;;;;;;;5055981;28;20017;-78
2022/06/24 08:25:21;;;;;;;4.30;2.13;;;;;;;;;;5038005;28;20025;-82
2022/06/24 08:27:47;;;;;;;7.03;2.20;;;;;;;;;;5055835;28;20029;-83
2022/06/24 08:30:14;;;;;;;5.03;2.30;;;;;;;;;;5055425;28;20060;-79
2022/06/24 08:32:40;;;;;;;3.95;1.80;;;;;;;;;;5055374;28;20485;-82
2022/06/24 08:35:06;;;;;;;2.00;1.80;;;;;;;;;;5055851;28;20032;-80
2022/06/24 08:37:33;;;;;;;4.15;2.38;;;;;;;;;;5055883;28;20059;-78
2022/06/24 08:40:00;;;;;;;2.55;1.80;;;;;;;;;;5055552;28;20068;-80
2022/06/24 08:42:40;;;;;;;5.32;2.28;;;;;;;;;;5055974;28;20021;-78
2022/06/24 08:45:07;;;;;;;4.85;2.47;;;;;;;;;;5056567;28;20092;-79
2022/06/24 08:47:34;;;;;;;2.00;1.80;;;;;;;;;;5054869;28;20033;-78
2022/06/24 08:50:00;;;;;;;2.35;2.05;;;;;;;;;;5037617;28;20094;-80
2022/06/24 08:52:25;;;;;;;3.45;1.70;;;;;;;;;;5021023;28;20493;-80
2022/06/24 08:54:59;;;;;;;4.82;2.17;;;;;;;;;;5055392;28;20517;-81
2022/06/24 08:57:25;;;;;;;4.63;2.00;;;;;;;;;;5037088;28;20036;-78
2022/06/24 08:59:53;;;;;;;1.90;1.80;;;;;;;;;;5055156;28;20032;-80
2022/06/24 09:02:20;;;;;;;3.78;2.00;;;;;;;;;;5069526;28;20020;-79
2022/06/24 09:04:46;;;;;;;6.38;2.30;;;;;;;;;;5075038;28;20024;-78
2022/06/24 09:07:31;;;;;;;3.75;2.10;;;;;;;;;;5075048;28;20052;-80
2022/06/24 09:09:58;;;;;;;6.32;2.05;;;;;;;;;;5073926;28;20044;-80
2022/06/24 09:12:23;;;;;;;2.25;1.92;;;;;;;;;;5075576;28;20025;-81
2022/06/24 09:14:50;;;;;;;4.57;2.17;;;;;;;;;;5075071;28;20103;-83
2022/06/24 09:17:15;;;;;;;3.30;1.70;;;;;;;;;;5074842;28;20028;-77
2022/06/24 09:19:41;;;;;;;6.63;2.90;;;;;;;;;;5075096;28;20027;-81
2022/06/24 09:22:08;;;;;;;8.13;1.92;;;;;;;;;;5060514;28;20035;-78
2022/06/24 09:24:50;;;;;;;2.35;1.77;;;;;;;;;;5036375;28;20071;-84
2022/06/24 09:27:15;;;;;;;5.15;2.90;;;;;;;;;;5054940;28;20029;-81
2022/06/24 09:29:48;;;;;;;4.67;2.33;;;;;;;;;;5055230;28;20452;-78
2022/06/24 09:32:28;;;;;;;2.50;1.70;;;;;;;;;;5054249;28;20291;-80
2022/06/24 09:35:10;;;;;;;4.60;2.10;;;;;;;;;;5045360;28;20047;-76
2022/06/24 09:37:36;;;;;;;2.28;1.85;;;;;;;;;;5054643;28;20570;-79
2022/06/24 09:40:21;;;;;;;4.30;2.20;;;;;;;;;;5054175;28;20385;-80
2022/06/24 09:42:54;;;;;;;4.53;1.80;;;;;;;;;;5036623;28;20052;-79
2022/06/24 09:45:22;;;;;;;3.17;2.50;;;;;;;;;;5053645;28;20017;-74
2022/06/24 09:47:49;;;;;;;4.35;2.00;;;;;;;;;;5036405;28;20102;-73
2022/06/24 09:50:20;;;;;;;3.50;2.00;;;;;;;;;;5053045;28;20061;-71
2022/06/24 09:52:50;;;;;;;4.25;2.42;;;;;;;;;;5054045;28;20028;-70
2022/06/24 09:55:15;;;;;;;2.97;2.15;;;;;;;;;;5054132;28;20075;-72
2022/06/24 09:57:43;;;;;;;4.55;2.38;;;;;;;;;;5053909;28;20025;-72
2022/06/24 10:03:03;;;;;;;9.02;2.17;;;;;;;;;;5053898;28;20036;-72
2022/06/24 10:05:49;;;;;;;4.70;1.88;;;;;;;;;;5053699;28;20021;-72
2022/06/24 10:08:18;;;;;;;2.33;2.13;;;;;;;;;;5053470;28;20021;-74
2022/06/24 10:10:51;;;;;;;4.82;2.10;;;;;;;;;;5053843;28;20104;-74
2022/06/24 10:13:38;;;;;;;2.47;1.80;;;;;;;;;;5053579;28;20031;-74
2022/06/24 10:16:05;;;;;;;6.65;2.78;;;;;;;;;;5053267;28;20496;-76
2022/06/24 10:18:44;;;;;;;4.57;2.05;;;;;;;;;;5052136;28;20032;-76
2022/06/24 10:21:09;;;;;;;7.10;1.95;;;;;;;;;;5053831;28;20024;-75
2022/06/24 10:23:40;;;;;;;6.55;3.15;;;;;;;;;;5035295;28;20166;-73
2022/06/24 10:26:10;;;;;;;4.20;2.28;;;;;;;;;;5053809;28;20100;-77
2022/06/24 10:28:54;;;;;;;7.20;3.53;;;;;;;;;;5053081;28;20025;-75
2022/06/24 10:31:21;;;;;;;7.80;2.47;;;;;;;;;;5052963;28;20132;-76
2022/06/24 10:33:46;;;;;;;5.63;2.47;;;;;;;;;;5053152;28;20469;-75
2022/06/24 10:36:28;;;;;;;4.55;2.65;;;;;;;;;;5053593;28;20028;-74
2022/06/24 10:38:55;;;;;;;3.92;2.30;;;;;;;;;;5053547;28;20103;-74
2022/06/24 10:41:35;;;;;;;5.50;2.65;;;;;;;;;;5053267;28;20040;-74
2022/06/24 10:44:20;;;;;;;4.70;2.25;;;;;;;;;;5035203;28;20025;-74
2022/06/24 10:46:45;;;;;;;8.70;2.60;;;;;;;;;;5053026;28;20017;-75
2022/06/24 10:49:11;;;;;;;8.20;3.00;;;;;;;;;;5053287;28;20032;-75
2022/06/24 10:51:36;;;;;;;14.80;4.27;;;;;;;;;;5053366;28;20031;-75
2022/06/24 10:54:02;;;;;;;7.13;2.60;;;;;;;;;;5052900;28;20819;-75
2022/06/24 10:56:49;;;;;;;3.45;2.50;;;;;;;;;;5052145;28;20100;-76
2022/06/24 10:59:19;;;;;;;4.57;2.22;;;;;;;;;;5034277;28;20103;-77
2022/06/24 11:01:55;;;;;;;4.22;2.00;;;;;;;;;;5035176;28;20017;-77
2022/06/24 11:04:44;;;;;;;3.97;2.10;;;;;;;;;;5053136;28;20020;-76
2022/06/24 11:07:15;;;;;;;2.42;2.17;;;;;;;;;;5051622;28;20021;-77
2022/06/24 11:09:41;;;;;;;3.10;2.05;;;;;;;;;;5053388;28;20021;-76
2022/06/24 11:12:28;;;;;;;8.70;2.73;;;;;;;;;;5053100;28;20347;-77
2022/06/24 11:14:54;;;;;;;4.50;2.30;;;;;;;;;;5039185;28;20040;-76
2022/06/24 11:17:31;;;;;;;2.22;2.03;;;;;;;;;;5053510;28;20096;-74
2022/06/24 11:19:58;;;;;;;3.22;2.10;;;;;;;;;;5054497;28;20094;-75
2022/06/24 11:22:29;;;;;;;3.65;1.85;;;;;;;;;;5053757;28;20116;-73
2022/06/24 11:25:15;;;;;;;2.33;2.10;;;;;;;;;;5035933;28;20036;-73
2022/06/24 11:27:41;;;;;;;3.55;2.42;;;;;;;;;;5052697;28;20029;-73
2022/06/24 11:30:08;;;;;;;4.45;2.08;;;;;;;;;;5052886;28;20082;-75
2022/06/24 11:33:06;;;;;;;11.27;2.72;;;;;;;;;;5034928;28;20116;-76
2022/06/24 11:35:33;;;;;;;10.93;3.30;;;;;;;;;;5052456;28;20024;-76
2022/06/24 11:37:59;;;;;;;9.10;2.38;;;;;;;;;;5052515;28;20024;-75
2022/06/24 11:40:27;;;;;;;5.13;2.05;;;;;;;;;;5052479;28;20108;-74
2022/06/24 11:42:53;;;;;;;4.32;1.85;;;;;;;;;;5052538;28;20017;-75
2022/06/24 11:45:32;;;;;;;3.55;1.90;;;;;;;;;;5034622;28;20477;-76
2022/06/24 11:47:57;;;;;;;2.30;1.92;;;;;;;;;;5049164;28;20078;-75
2022/06/24 11:50:24;;;;;;;2.80;1.60;;;;;;;;;;5052644;28;20400;-73
2022/06/24 11:52:50;;;;;;;3.95;2.10;;;;;;;;;;5052782;28;20032;-74
2022/06/24 11:55:43;;;;;;;6.28;2.75;;;;;;;;;;5052313;28;20031;-74
2022/06/24 11:58:11;;;;;;;2.33;1.95;;;;;;;;;;5048761;28;20037;-74
2022/06/24 12:00:38;;;;;;;24.75;6.38;;;;;;;;;;5034727;28;20032;-73
2022/06/24 12:03:07;;;;;;;3.75;1.90;;;;;;;;;;5034519;28;20024;-75
2022/06/24 12:05:42;;;;;;;7.47;1.88;;;;;;;;;;5051680;28;20066;-75
2022/06/24 12:08:14;;;;;;;6.50;2.10;;;;;;;;;;5052478;28;20109;-76
2022/06/24 12:10:55;;;;;;;3.25;2.20;;;;;;;;;;5062598;28;20163;-78
2022/06/24 12:13:27;;;;;;;4.20;1.63;;;;;;;;;;5053842;28;20110;-76
2022/06/24 12:15:54;;;;;;;2.97;2.05;;;;;;;;;;5054356;28;20278;-77
2022/06/24 12:18:22;;;;;;;2.67;2.42;;;;;;;;;;5020735;28;20021;-75
2022/06/24 12:21:04;;;;;;;4.20;2.13;;;;;;;;;;5055313;28;20024;-76
2022/06/24 12:23:38;;;;;;;1.85;1.50;;;;;;;;;;5037180;28;20067;-75
2022/06/24 12:26:04;;;;;;;6.45;2.13;;;;;;;;;;5054572;28;20043;-78
2022/06/24 12:28:30;;;;;;;4.55;2.00;;;;;;;;;;5054137;28;20017;-76
2022/06/24 12:30:55;;;;;;;6.90;1.83;;;;;;;;;;5054992;28;20041;-74
2022/06/24 12:33:22;;;;;;;3.50;1.63;;;;;;;;;;5055187;28;20327;-75
2022/06/24 12:35:50;;;;;;;4.40;2.00;;;;;;;;;;5055019;28;20260;-76
2022/06/24 12:38:15;;;;;;;3.08;1.73;;;;;;;;;;5055028;28;20096;-76
2022/06/24 12:40:42;;;;;;;3.67;1.90;;;;;;;;;;5053877;28;20446;-76
2022/06/24 12:43:11;;;;;;;1.88;1.65;;;;;;;;;;5055326;28;20021;-78
2022/06/24 12:45:37;;;;;;;2.00;1.77;;;;;;;;;;5055053;28;20095;-77
2022/06/24 12:51:01;;;;;;;4.78;2.17;;;;;;;;;;5055605;28;20087;-81
2022/06/24 12:53:28;;;;;;;1.80;1.70;;;;;;;;;;5055232;28;20064;-72
2022/06/24 12:55:53;;;;;;;1.85;1.48;;;;;;;;;;5055174;28;20032;-72
2022/06/24 12:58:19;;;;;;;2.65;2.13;;;;;;;;;;5055159;28;20112;-70
2022/06/24 13:00:45;;;;;;;2.22;1.80;;;;;;;;;;5054807;28;20078;-72
2022/06/24 13:03:15;;;;;;;1.77;1.52;;;;;;;;;;5054773;28;20017;-73
2022/06/24 13:05:41;;;;;;;2.15;1.80;;;;;;;;;;5037173;28;20024;-74
2022/06/24 13:08:06;;;;;;;1.98;1.48;;;;;;;;;;5031668;28;20108;-74
2022/06/24 13:10:32;;;;;;;2.67;1.45;;;;;;;;;;5029404;28;20120;-73
2022/06/24 13:12:59;;;;;;;2.80;1.63;;;;;;;;;;5046575;28;20047;-71
2022/06/24 13:15:25;;;;;;;3.75;2.05;;;;;;;;;;5044895;28;20385;-71
2022/06/24 13:17:50;;;;;;;2.58;2.22;;;;;;;;;;5041573;28;20036;-73
2022/06/24 13:20:17;;;;;;;9.63;3.20;;;;;;;;;;5023429;28;20048;-72
2022/06/24 13:22:43;;;;;;;2.75;1.55;;;;;;;;;;5044956;28;20029;-72
2022/06/24 13:25:08;;;;;;;2.45;1.77;;;;;;;;;;5034542;28;20391;-73
2022/06/24 13:27:35;;;;;;;2.63;1.58;;;;;;;;;;5033661;28;20585;-72
2022/06/24 13:30:03;;;;;;;4.05;1.83;;;;;;;;;;5020846;28;20128;-74
2022/06/24 13:32:30;;;;;;;3.10;1.77;;;;;;;;;;5019709;28;20036;-76
2022/06/24 13:34:55;;;;;;;4.07;1.98;;;;;;;;;;5054240;28;21092;-75
2022/06/24 13:37:20;;;;;;;2.00;1.80;;;;;;;;;;5053456;28;20133;-74
2022/06/24 13:39:46;;;;;;;2.43;1.83;;;;;;;;;;5054446;28;20029;-74
2022/06/24 13:42:12;;;;;;;3.13;1.63;;;;;;;;;;5054065;28;20625;-75
2022/06/24 13:44:37;;;;;;;2.90;2.00;;;;;;;;;;5053401;28;20462;-74
2022/06/24 13:47:02;;;;;;;1.55;1.45;;;;;;;;;;5053596;28;20267;-74
2022/06/24 13:49:28;;;;;;;4.97;1.83;;;;;;;;;;5053861;28;20457;-75
2022/06/24 13:51:53;;;;;;;3.88;1.60;;;;;;;;;;5050974;28;20033;-76
2022/06/24 13:54:19;;;;;;;5.15;2.33;;;;;;;;;;5033945;28;20029;-77
2022/06/24 13:56:44;;;;;;;3.03;1.98;;;;;;;;;;5033631;28;20030;-78
2022/06/24 13:59:11;;;;;;;3.80;2.20;;;;;;;;;;5033596;28;20043;-75
2022/06/24 14:01:36;;;;;;;3.97;1.70;;;;;;;;;;5015533;28;20080;-77
2022/06/24 14:04:01;;;;;;;8.27;1.98;;;;;;;;;;5033280;28;20021;-73
2022/06/24 14:06:27;;;;;;;1.58;1.42;;;;;;;;;;5031492;28;20022;-75
2022/06/24 14:08:52;;;;;;;2.50;2.03;;;;;;;;;;5033251;28;20083;-74
2022/06/24 14:11:17;;;;;;;3.20;1.50;;;;;;;;;;5033429;28;20013;-75
2022/06/24 14:13:43;;;;;;;2.53;1.50;;;;;;;;;;5015609;28;20519;-76
2022/06/24 14:16:08;;;;;;;5.00;1.60;;;;;;;;;;5015689;28;20029;-77
2022/06/24 14:18:35;;;;;;;3.17;2.10;;;;;;;;;;5033659;28;20042;-76
2022/06/24 14:21:01;;;;;;;2.03;1.38;;;;;;;;;;5032676;28;20280;-75
2022/06/24 14:26:11;;;;;;;4.85;2.05;;;;;;;;;;5052447;28;20083;-75
2022/06/24 14:28:36;;;;;;;3.97;1.50;;;;;;;;;;5052809;28;20049;-75
2022/06/24 14:31:04;;;;;;;4.03;1.50;;;;;;;;;;5052022;28;20041;-73
2022/06/24 14:33:29;;;;;;;3.17;1.73;;;;;;;;;;5034369;28;20052;-73
2022/06/24 14:35:54;;;;;;;4.78;2.28;;;;;;;;;;5053347;28;20437;-72
2022/06/24 14:41:04;;;;;;;2.17;1.73;;;;;;;;;;5051047;28;20516;-71
2022/06/24 14:43:29;;;;;;;3.65;1.80;;;;;;;;;;5051684;28;20025;-72
2022/06/24 14:45:54;;;;;;;3.45;1.40;;;;;;;;;;5052773;28;20385;-71
2022/06/24 14:48:20;;;;;;;2.05;1.90;;;;;;;;;;5051168;28;20478;-71
2022/06/24 14:50:46;;;;;;;3.35;1.52;;;;;;;;;;5051623;28;20061;-73
2022/06/24 14:53:11;;;;;;;4.18;1.80;;;;;;;;;;5051093;28;20536;-74
2022/06/24 14:55:37;;;;;;;3.53;1.73;;;;;;;;;;5050986;28;20060;-73
2022/06/24 14:58:02;;;;;;;1.98;1.30;;;;;;;;;;5051490;28;20267;-71
2022/06/24 15:00:28;;;;;;;2.80;1.70;;;;;;;;;;5051550;28;20029;-73
2022/06/24 15:02:54;;;;;;;2.05;1.70;;;;;;;;;;5053160;28;20024;-73
2022/06/24 15:05:19;;;;;;;2.33;1.30;;;;;;;;;;5053934;28;20025;-72
2022/06/24 15:07:45;;;;;;;2.22;1.38;;;;;;;;;;5071092;28;20339;-73